Time;durP1;ratioP1;P1;durP2;ratioP2;P2;SDS_P1;SDS_P2;PMS_P1;PMS_P2;Temp;Humidity;BMP_temperature;BMP_pressure;BME280_temperature;BME280_humidity;BME280_pressure;Samples;Min_cycle;Max_cycle;Signal;HPM_P1;HPM_P2
2022/12/18 00:02:35;;;;;;;33.85;16.17;;;;;;;;;;5074040;28;20036;-84
2022/12/18 00:05:21;;;;;;;22.90;12.48;;;;;;;;;;5081050;28;20391;-84
2022/12/18 00:08:06;;;;;;;18.77;10.57;;;;;;;;;;5080954;28;20048;-85
2022/12/18 00:10:52;;;;;;;43.35;22.85;;;;;;;;;;5080924;28;20044;-84
2022/12/18 00:13:37;;;;;;;33.08;15.65;;;;;;;;;;5074288;28;20036;-83
2022/12/18 00:16:25;;;;;;;25.55;11.77;;;;;;;;;;5065563;28;20045;-84
2022/12/18 00:19:11;;;;;;;14.38;8.23;;;;;;;;;;5074172;28;20048;-85
2022/12/18 00:21:58;;;;;;;35.22;17.48;;;;;;;;;;5064334;28;20467;-85
2022/12/18 00:24:43;;;;;;;20.88;11.15;;;;;;;;;;5080525;28;20407;-85
2022/12/18 00:27:28;;;;;;;29.33;15.45;;;;;;;;;;5081177;28;20044;-85
2022/12/18 00:30:14;;;;;;;32.97;14.75;;;;;;;;;;5065615;28;20040;-84
2022/12/18 00:33:00;;;;;;;33.15;15.30;;;;;;;;;;5065975;28;20379;-85
2022/12/18 00:35:45;;;;;;;41.78;19.55;;;;;;;;;;5058922;28;20028;-84
2022/12/18 00:38:31;;;;;;;38.72;19.27;;;;;;;;;;5080225;28;20041;-85
2022/12/18 00:42:55;;;;;;;43.03;21.15;;;;;;;;;;5074144;28;20383;-85
2022/12/18 00:44:24;;;;;;;191.70;84.80;;;;;;;;;;5061526;28;20032;-87
2022/12/18 00:47:10;;;;;;;56.88;26.45;;;;;;;;;;5070848;28;20033;-87
2022/12/18 00:49:56;;;;;;;52.50;23.90;;;;;;;;;;5069142;28;20032;-87
2022/12/18 00:52:42;;;;;;;43.22;21.20;;;;;;;;;;5069481;28;20475;-87
2022/12/18 00:55:27;;;;;;;39.60;20.17;;;;;;;;;;5063058;28;20375;-85
2022/12/18 00:58:15;;;;;;;43.95;19.83;;;;;;;;;;5061545;28;20041;-85
2022/12/18 01:01:00;;;;;;;40.13;18.52;;;;;;;;;;5065843;28;20032;-86
2022/12/18 01:03:46;;;;;;;44.88;20.70;;;;;;;;;;5045343;28;20040;-84
2022/12/18 01:06:32;;;;;;;42.35;19.67;;;;;;;;;;5065485;28;20048;-87
2022/12/18 01:09:18;;;;;;;38.05;19.35;;;;;;;;;;5069250;28;20040;-87
2022/12/18 01:12:05;;;;;;;38.20;19.45;;;;;;;;;;5078436;28;20036;-86
2022/12/18 01:14:50;;;;;;;43.90;19.65;;;;;;;;;;5065553;28;20472;-85
2022/12/18 01:17:36;;;;;;;37.33;18.38;;;;;;;;;;5066859;28;20033;-85
2022/12/18 01:20:22;;;;;;;43.20;20.27;;;;;;;;;;5069164;28;20040;-85
2022/12/18 01:23:07;;;;;;;39.38;19.48;;;;;;;;;;5062569;28;20479;-85
2022/12/18 01:25:52;;;;;;;36.17;18.75;;;;;;;;;;5068491;28;20388;-85
2022/12/18 01:28:39;;;;;;;37.22;19.48;;;;;;;;;;5066782;28;20033;-85
2022/12/18 01:31:29;;;;;;;35.72;18.02;;;;;;;;;;5068221;28;20467;-85
2022/12/18 01:34:14;;;;;;;34.72;18.63;;;;;;;;;;5067742;28;20487;-85
2022/12/18 01:37:02;;;;;;;34.13;17.38;;;;;;;;;;5066103;28;20040;-85
2022/12/18 01:39:49;;;;;;;36.78;17.67;;;;;;;;;;5065929;28;20032;-85
2022/12/18 01:42:35;;;;;;;37.95;18.90;;;;;;;;;;5066446;28;20049;-86
2022/12/18 01:45:30;;;;;;;38.78;17.75;;;;;;;;;;5074514;28;20479;-85
2022/12/18 01:48:15;;;;;;;37.63;17.95;;;;;;;;;;5075041;28;20264;-85
2022/12/18 01:51:01;;;;;;;39.55;19.27;;;;;;;;;;5075783;28;20036;-85
2022/12/18 01:53:48;;;;;;;38.83;19.70;;;;;;;;;;5076465;28;20387;-85
2022/12/18 01:56:33;;;;;;;41.65;18.00;;;;;;;;;;5066199;28;20044;-85
2022/12/18 01:59:19;;;;;;;36.05;18.15;;;;;;;;;;5079108;28;20036;-84
2022/12/18 02:02:04;;;;;;;42.85;19.17;;;;;;;;;;5093053;28;20037;-85
2022/12/18 02:04:50;;;;;;;36.63;17.83;;;;;;;;;;5085974;28;20052;-85
2022/12/18 02:07:49;;;;;;;37.80;19.15;;;;;;;;;;5076402;28;20044;-86
2022/12/18 02:10:47;;;;;;;38.80;18.40;;;;;;;;;;5068322;28;20040;-85
2022/12/18 02:14:03;;;;;;;40.38;20.10;;;;;;;;;;5076219;28;20375;-85
2022/12/18 02:17:07;;;;;;;34.75;17.08;;;;;;;;;;5081409;28;20036;-85
2022/12/18 02:20:11;;;;;;;36.42;18.70;;;;;;;;;;5067862;28;20044;-85
2022/12/18 02:23:32;;;;;;;40.80;18.77;;;;;;;;;;5075844;28;20044;-85
2022/12/18 02:26:35;;;;;;;39.53;18.13;;;;;;;;;;5082583;28;20049;-85
2022/12/18 02:29:43;;;;;;;42.92;18.52;;;;;;;;;;5067449;28;20052;-85
2022/12/18 02:32:34;;;;;;;40.95;19.27;;;;;;;;;;5067274;28;20044;-85
2022/12/18 02:35:27;;;;;;;41.83;20.50;;;;;;;;;;5082420;28;20468;-85
2022/12/18 02:38:16;;;;;;;50.00;21.88;;;;;;;;;;5067183;28;20044;-85
2022/12/18 02:41:05;;;;;;;37.17;17.77;;;;;;;;;;5067151;28;20383;-85
2022/12/18 02:43:56;;;;;;;37.45;18.85;;;;;;;;;;5075185;28;20044;-85
2022/12/18 02:46:48;;;;;;;42.17;19.00;;;;;;;;;;5067585;28;20044;-85
2022/12/18 02:49:40;;;;;;;36.13;18.52;;;;;;;;;;5067094;28;20041;-85
2022/12/18 02:52:33;;;;;;;43.22;20.05;;;;;;;;;;5067137;28;20044;-85
2022/12/18 02:55:27;;;;;;;92.60;39.17;;;;;;;;;;5067103;28;20045;-84
2022/12/18 02:58:55;;;;;;;47.55;21.42;;;;;;;;;;5074952;28;20032;-84
2022/12/18 03:02:09;;;;;;;36.65;18.52;;;;;;;;;;5047807;28;20044;-84
2022/12/18 03:05:12;;;;;;;35.75;16.75;;;;;;;;;;5074876;28;20037;-83
2022/12/18 03:08:12;;;;;;;38.75;19.17;;;;;;;;;;5066341;28;20048;-84
2022/12/18 03:11:06;;;;;;;61.33;26.35;;;;;;;;;;5067014;28;20475;-84
2022/12/18 03:13:57;;;;;;;38.25;19.13;;;;;;;;;;5081676;28;20036;-84
2022/12/18 03:16:46;;;;;;;36.15;19.13;;;;;;;;;;5066353;28;20383;-84
2022/12/18 03:19:34;;;;;;;40.00;18.67;;;;;;;;;;5074704;28;20480;-84
2022/12/18 03:22:22;;;;;;;38.33;18.73;;;;;;;;;;5063676;28;20048;-84
2022/12/18 03:25:13;;;;;;;32.60;17.83;;;;;;;;;;5066459;28;20040;-83
2022/12/18 03:28:03;;;;;;;39.08;18.02;;;;;;;;;;5066843;28;20036;-84
2022/12/18 03:30:57;;;;;;;39.63;18.40;;;;;;;;;;5066355;28;20487;-84
2022/12/18 03:33:51;;;;;;;44.25;22.20;;;;;;;;;;5066271;28;20044;-84
2022/12/18 03:36:37;;;;;;;40.92;19.80;;;;;;;;;;5065962;28;20056;-85
2022/12/18 03:39:24;;;;;;;35.00;18.25;;;;;;;;;;5066075;28;20052;-84
2022/12/18 03:42:39;;;;;;;39.38;17.77;;;;;;;;;;5066331;28;20463;-84
2022/12/18 03:45:40;;;;;;;39.30;18.25;;;;;;;;;;5065990;28;20048;-84
2022/12/18 03:48:37;;;;;;;31.35;16.63;;;;;;;;;;5080777;28;20040;-84
2022/12/18 03:51:35;;;;;;;34.67;17.77;;;;;;;;;;5066554;28;20411;-84
2022/12/18 03:54:23;;;;;;;31.10;16.25;;;;;;;;;;5065747;28;20387;-84
2022/12/18 03:57:19;;;;;;;36.40;17.20;;;;;;;;;;5065882;28;20036;-84
2022/12/18 04:00:12;;;;;;;37.97;17.83;;;;;;;;;;5066223;28;20407;-84
2022/12/18 04:03:13;;;;;;;35.38;16.88;;;;;;;;;;5066566;28;20044;-84
2022/12/18 04:06:04;;;;;;;39.22;17.30;;;;;;;;;;5066654;28;20056;-83
2022/12/18 04:08:53;;;;;;;38.47;18.50;;;;;;;;;;5052216;28;20048;-84
2022/12/18 04:11:43;;;;;;;37.83;18.23;;;;;;;;;;5065766;28;20048;-84
2022/12/18 04:14:29;;;;;;;31.10;16.42;;;;;;;;;;5066319;28;20410;-84
2022/12/18 04:17:16;;;;;;;35.70;17.70;;;;;;;;;;5066083;28;20471;-84
2022/12/18 04:20:01;;;;;;;34.15;17.60;;;;;;;;;;5065323;28;20391;-84
2022/12/18 04:22:50;;;;;;;37.10;16.73;;;;;;;;;;5076864;28;20120;-83
2022/12/18 04:25:37;;;;;;;36.30;18.80;;;;;;;;;;5065795;28;20048;-84
2022/12/18 04:28:29;;;;;;;47.22;22.27;;;;;;;;;;5080566;28;20045;-84
2022/12/18 04:31:15;;;;;;;35.63;18.13;;;;;;;;;;5066143;28;20375;-84
2022/12/18 04:34:00;;;;;;;33.60;16.77;;;;;;;;;;5065626;28;20044;-84
2022/12/18 04:36:47;;;;;;;30.52;16.65;;;;;;;;;;5065190;28;20036;-84
2022/12/18 04:39:33;;;;;;;33.60;16.88;;;;;;;;;;5065627;28;20040;-84
2022/12/18 04:42:24;;;;;;;38.65;18.63;;;;;;;;;;5077841;28;20041;-83
2022/12/18 04:45:10;;;;;;;32.45;16.95;;;;;;;;;;5085627;28;20028;-80
2022/12/18 04:47:57;;;;;;;37.33;17.70;;;;;;;;;;5109028;28;20036;-83
2022/12/18 04:50:44;;;;;;;33.60;17.17;;;;;;;;;;5105298;28;20036;-84
2022/12/18 04:53:29;;;;;;;23.90;12.18;;;;;;;;;;5092798;28;20040;-84
2022/12/18 04:56:16;;;;;;;35.10;18.63;;;;;;;;;;5083237;28;20036;-84
2022/12/18 04:59:01;;;;;;;38.38;18.52;;;;;;;;;;5089778;28;20471;-84
2022/12/18 05:01:46;;;;;;;41.17;19.00;;;;;;;;;;5068996;28;20052;-84
2022/12/18 05:04:31;;;;;;;34.53;17.60;;;;;;;;;;5077447;28;20474;-84
2022/12/18 05:07:16;;;;;;;38.80;20.17;;;;;;;;;;5083783;28;20040;-84
2022/12/18 05:10:07;;;;;;;36.38;18.33;;;;;;;;;;5083887;28;20048;-84
2022/12/18 05:12:57;;;;;;;38.40;19.45;;;;;;;;;;5077021;28;20471;-84
2022/12/18 05:15:52;;;;;;;33.40;17.95;;;;;;;;;;5076662;28;20036;-84
2022/12/18 05:18:38;;;;;;;34.08;18.25;;;;;;;;;;5076764;28;20037;-84
2022/12/18 05:21:23;;;;;;;35.65;18.73;;;;;;;;;;5068719;28;20070;-84
2022/12/18 05:24:09;;;;;;;41.85;19.00;;;;;;;;;;5083716;28;20040;-84
2022/12/18 05:26:54;;;;;;;36.20;18.45;;;;;;;;;;5083481;28;20383;-84
2022/12/18 05:29:40;;;;;;;31.23;17.05;;;;;;;;;;5076691;28;20040;-84
2022/12/18 05:32:26;;;;;;;32.22;16.20;;;;;;;;;;5076465;28;20040;-84
2022/12/18 05:35:11;;;;;;;36.47;16.33;;;;;;;;;;5068664;28;20060;-84
2022/12/18 05:37:56;;;;;;;31.35;17.42;;;;;;;;;;5076196;28;20041;-84
2022/12/18 05:40:43;;;;;;;29.70;15.13;;;;;;;;;;5076673;28;20049;-84
2022/12/18 05:43:28;;;;;;;36.03;18.20;;;;;;;;;;5076190;28;20040;-84
2022/12/18 05:46:17;;;;;;;37.72;13.35;;;;;;;;;;5082871;28;20048;-84
2022/12/18 05:49:02;;;;;;;29.67;16.13;;;;;;;;;;5076034;28;20049;-84
2022/12/18 05:51:48;;;;;;;29.95;13.85;;;;;;;;;;5074915;28;20387;-84
2022/12/18 05:54:33;;;;;;;34.88;17.10;;;;;;;;;;5082994;28;20044;-84
2022/12/18 05:57:19;;;;;;;48.63;22.08;;;;;;;;;;5075930;28;20462;-84
2022/12/18 06:00:05;;;;;;;44.28;20.58;;;;;;;;;;5082970;28;20040;-84
2022/12/18 06:02:57;;;;;;;40.67;19.58;;;;;;;;;;5075911;28;20041;-84
2022/12/18 06:05:44;;;;;;;36.03;17.45;;;;;;;;;;5076270;28;20040;-84
2022/12/18 06:08:29;;;;;;;42.38;19.70;;;;;;;;;;5075948;28;20044;-84
2022/12/18 06:11:21;;;;;;;48.28;22.90;;;;;;;;;;5075720;28;20044;-84
2022/12/18 06:14:07;;;;;;;42.90;22.42;;;;;;;;;;5082298;28;20044;-84
2022/12/18 06:16:52;;;;;;;37.17;20.23;;;;;;;;;;5075874;28;20041;-84
2022/12/18 06:19:37;;;;;;;41.28;19.30;;;;;;;;;;5082743;28;20040;-84
2022/12/18 06:22:23;;;;;;;38.42;18.92;;;;;;;;;;5060546;28;20041;-84
2022/12/18 06:25:09;;;;;;;43.85;19.95;;;;;;;;;;5082479;28;20041;-84
2022/12/18 06:27:55;;;;;;;50.47;23.27;;;;;;;;;;5082369;28;20049;-84
2022/12/18 06:30:44;;;;;;;55.08;24.42;;;;;;;;;;5082234;28;20625;-84
2022/12/18 06:33:30;;;;;;;42.63;21.48;;;;;;;;;;5082366;28;20052;-84
2022/12/18 06:36:16;;;;;;;46.83;22.67;;;;;;;;;;5075200;28;20036;-84
2022/12/18 06:39:02;;;;;;;40.42;21.63;;;;;;;;;;5075320;28;20040;-84
2022/12/18 06:41:47;;;;;;;36.70;20.25;;;;;;;;;;5081968;28;20032;-84
2022/12/18 06:44:33;;;;;;;36.55;17.88;;;;;;;;;;5082246;28;20036;-85
2022/12/18 06:47:18;;;;;;;36.75;19.05;;;;;;;;;;5075326;28;20048;-84
2022/12/18 06:50:05;;;;;;;44.83;20.23;;;;;;;;;;5074753;28;20459;-84
2022/12/18 06:52:51;;;;;;;43.80;21.80;;;;;;;;;;5066992;28;20040;-84
2022/12/18 06:55:36;;;;;;;44.40;21.92;;;;;;;;;;5075076;28;20044;-84
2022/12/18 06:58:22;;;;;;;40.67;20.10;;;;;;;;;;5081611;28;20036;-84
2022/12/18 07:01:10;;;;;;;45.05;22.90;;;;;;;;;;5081818;28;20040;-84
2022/12/18 07:03:57;;;;;;;47.17;24.80;;;;;;;;;;5081484;28;20041;-84
2022/12/18 07:06:41;;;;;;;50.38;25.13;;;;;;;;;;5074767;28;20380;-84
2022/12/18 07:09:27;;;;;;;72.22;35.90;;;;;;;;;;5081751;28;20048;-83
2022/12/18 07:12:13;;;;;;;52.75;27.70;;;;;;;;;;5081459;28;20048;-84
2022/12/18 07:14:58;;;;;;;72.43;33.83;;;;;;;;;;5066632;28;20387;-84
2022/12/18 07:17:44;;;;;;;52.60;27.40;;;;;;;;;;5080849;28;20040;-84
2022/12/18 07:20:29;;;;;;;43.05;24.58;;;;;;;;;;5081030;28;20036;-84
2022/12/18 07:23:15;;;;;;;45.00;25.48;;;;;;;;;;5061010;28;20119;-84
2022/12/18 07:26:04;;;;;;;49.58;26.77;;;;;;;;;;5078500;28;20033;-84
2022/12/18 07:28:50;;;;;;;121.88;47.33;;;;;;;;;;5087532;28;20040;-84
2022/12/18 07:31:35;;;;;;;68.50;30.40;;;;;;;;;;5105605;28;20052;-83
2022/12/18 07:34:20;;;;;;;100.72;37.55;;;;;;;;;;5092873;28;20036;-84
2022/12/18 07:37:06;;;;;;;75.53;32.95;;;;;;;;;;5083976;28;20036;-84
2022/12/18 07:39:51;;;;;;;72.97;33.63;;;;;;;;;;5074264;28;20391;-84
2022/12/18 07:42:37;;;;;;;36.60;19.33;;;;;;;;;;5073925;28;20056;-84
2022/12/18 07:45:23;;;;;;;51.15;27.42;;;;;;;;;;5080953;28;20044;-83
2022/12/18 07:48:08;;;;;;;49.38;22.95;;;;;;;;;;5080623;28;20375;-83
2022/12/18 07:51:00;;;;;;;48.70;26.13;;;;;;;;;;5080891;28;20040;-83
2022/12/18 07:53:45;;;;;;;45.00;23.75;;;;;;;;;;5073975;28;20048;-83
2022/12/18 07:56:31;;;;;;;40.83;22.40;;;;;;;;;;5073807;28;20052;-84
2022/12/18 07:59:17;;;;;;;33.60;17.80;;;;;;;;;;5080395;28;20044;-84
2022/12/18 08:02:02;;;;;;;38.72;19.27;;;;;;;;;;5080464;28;20044;-83
2022/12/18 08:04:48;;;;;;;30.63;15.98;;;;;;;;;;5075116;28;20040;-84
2022/12/18 08:07:33;;;;;;;32.10;14.15;;;;;;;;;;5073927;28;20044;-85
2022/12/18 08:10:20;;;;;;;40.38;17.85;;;;;;;;;;5073688;28;20032;-84
2022/12/18 08:13:04;;;;;;;25.45;13.55;;;;;;;;;;5080233;28;20037;-84
2022/12/18 08:16:04;;;;;;;36.08;17.08;;;;;;;;;;5079595;28;20048;-83
2022/12/18 08:18:49;;;;;;;24.70;13.60;;;;;;;;;;5080383;28;20032;-82
2022/12/18 08:21:34;;;;;;;29.63;14.93;;;;;;;;;;5073580;28;20044;-82
2022/12/18 08:24:19;;;;;;;26.83;14.85;;;;;;;;;;5073587;28;20466;-83
2022/12/18 08:27:04;;;;;;;44.33;24.08;;;;;;;;;;5073529;28;20040;-86
2022/12/18 08:29:50;;;;;;;44.30;20.23;;;;;;;;;;5066405;28;20383;-86
2022/12/18 08:32:36;;;;;;;36.08;16.15;;;;;;;;;;5073890;28;20036;-83
2022/12/18 08:35:21;;;;;;;18.80;12.02;;;;;;;;;;5081417;28;20459;-83
2022/12/18 08:38:07;;;;;;;18.10;9.95;;;;;;;;;;5080303;28;20045;-80
2022/12/18 08:41:04;;;;;;;54.50;19.85;;;;;;;;;;5080329;28;20044;-84
2022/12/18 08:46:53;;;;;;;24.73;14.40;;;;;;;;;;5073781;28;20036;-82
2022/12/18 08:49:39;;;;;;;16.83;10.75;;;;;;;;;;5073662;28;20036;-83
2022/12/18 08:52:24;;;;;;;20.42;10.48;;;;;;;;;;5080003;28;20040;-82
2022/12/18 08:55:10;;;;;;;32.65;15.90;;;;;;;;;;5073035;28;20041;-83
2022/12/18 08:57:55;;;;;;;23.30;11.10;;;;;;;;;;5073151;28;20044;-85
2022/12/18 09:00:40;;;;;;;18.75;9.90;;;;;;;;;;5073799;28;20041;-83
2022/12/18 09:03:26;;;;;;;16.60;8.75;;;;;;;;;;5080090;28;20459;-84
2022/12/18 09:06:15;;;;;;;42.33;18.35;;;;;;;;;;5073363;28;20044;-84
2022/12/18 09:09:00;;;;;;;21.98;12.07;;;;;;;;;;5073409;28;20048;-83
2022/12/18 09:11:45;;;;;;;14.02;7.25;;;;;;;;;;5080068;28;20041;-83
2022/12/18 09:14:30;;;;;;;26.38;13.85;;;;;;;;;;5073603;28;20041;-83
2022/12/18 09:17:16;;;;;;;13.85;9.27;;;;;;;;;;5079786;28;20032;-83
2022/12/18 09:20:02;;;;;;;55.45;26.67;;;;;;;;;;5079894;28;20056;-81
2022/12/18 09:22:47;;;;;;;43.28;20.00;;;;;;;;;;5073515;28;20044;-82
2022/12/18 09:25:35;;;;;;;275.25;103.45;;;;;;;;;;5079697;28;20040;-82
2022/12/18 09:28:20;;;;;;;44.20;20.95;;;;;;;;;;5083565;28;20044;-82
2022/12/18 09:31:08;;;;;;;104.65;33.55;;;;;;;;;;5076347;28;20371;-82
2022/12/18 09:33:56;;;;;;;28.80;14.13;;;;;;;;;;5083208;28;20044;-82
2022/12/18 09:36:41;;;;;;;89.50;30.50;;;;;;;;;;5076834;28;20037;-82
2022/12/18 09:39:26;;;;;;;27.23;14.93;;;;;;;;;;5083329;28;20044;-82
2022/12/18 09:42:21;;;;;;;39.20;16.65;;;;;;;;;;5076364;28;20044;-83
2022/12/18 09:45:14;;;;;;;31.70;16.40;;;;;;;;;;5076372;28;20041;-82
2022/12/18 09:48:05;;;;;;;37.42;18.55;;;;;;;;;;5061147;28;20040;-85
2022/12/18 09:50:51;;;;;;;21.65;12.30;;;;;;;;;;5077486;28;20040;-83
2022/12/18 09:53:40;;;;;;;22.80;10.85;;;;;;;;;;5082843;28;20036;-83
2022/12/18 09:56:29;;;;;;;24.55;11.40;;;;;;;;;;5083235;28;20044;-83
2022/12/18 09:59:24;;;;;;;29.25;16.05;;;;;;;;;;5062946;28;20045;-82
2022/12/18 10:02:31;;;;;;;31.67;15.52;;;;;;;;;;5062707;28;20383;-83
2022/12/18 10:05:20;;;;;;;16.80;9.40;;;;;;;;;;5057745;28;20037;-83
2022/12/18 10:08:20;;;;;;;12.23;6.75;;;;;;;;;;5052104;28;20041;-83
2022/12/18 10:11:54;;;;;;;32.42;15.57;;;;;;;;;;5062046;28;20037;-78
2022/12/18 10:14:56;;;;;;;17.80;7.40;;;;;;;;;;5058759;28;20036;-80
2022/12/18 10:18:06;;;;;;;8.70;4.85;;;;;;;;;;5073795;28;20045;-81
2022/12/18 10:20:57;;;;;;;20.88;10.48;;;;;;;;;;5071153;28;20036;-81
2022/12/18 10:24:14;;;;;;;7.00;4.13;;;;;;;;;;5066601;28;20041;-81
2022/12/18 10:27:15;;;;;;;30.00;15.35;;;;;;;;;;5065844;28;20468;-82
2022/12/18 10:30:11;;;;;;;24.98;12.70;;;;;;;;;;5057864;28;20052;-84
2022/12/18 10:33:01;;;;;;;10.70;6.95;;;;;;;;;;5065009;28;20377;-82
2022/12/18 10:35:52;;;;;;;30.23;16.02;;;;;;;;;;5063166;28;20041;-81
2022/12/18 10:38:38;;;;;;;19.67;9.65;;;;;;;;;;5071104;28;20037;-82
2022/12/18 10:41:26;;;;;;;6.43;5.22;;;;;;;;;;5067118;28;20037;-83
2022/12/18 10:44:20;;;;;;;33.00;16.08;;;;;;;;;;5075664;28;20040;-84
2022/12/18 10:47:10;;;;;;;20.58;10.40;;;;;;;;;;5075350;28;20048;-82
2022/12/18 10:49:56;;;;;;;24.23;11.32;;;;;;;;;;5075804;28;20048;-83
2022/12/18 10:52:45;;;;;;;10.15;6.95;;;;;;;;;;5075518;28;20471;-86
2022/12/18 10:55:34;;;;;;;13.75;7.95;;;;;;;;;;5061250;28;20040;-85
2022/12/18 10:58:37;;;;;;;33.08;15.75;;;;;;;;;;5072528;28;20041;-82
2022/12/18 11:01:22;;;;;;;8.27;5.78;;;;;;;;;;5055241;28;20045;-83
2022/12/18 11:04:09;;;;;;;14.30;7.57;;;;;;;;;;5054887;28;20037;-84
2022/12/18 11:06:58;;;;;;;24.50;12.85;;;;;;;;;;5061518;28;20381;-85
2022/12/18 11:10:05;;;;;;;26.88;11.35;;;;;;;;;;5060747;28;20041;-85
2022/12/18 11:12:52;;;;;;;37.00;15.77;;;;;;;;;;5061868;28;20380;-85
2022/12/18 11:15:43;;;;;;;19.60;11.25;;;;;;;;;;5054802;28;20033;-85
2022/12/18 11:18:31;;;;;;;35.28;17.35;;;;;;;;;;5055266;28;20041;-84
2022/12/18 11:21:17;;;;;;;35.35;17.67;;;;;;;;;;5046598;28;20032;-83
2022/12/18 11:24:02;;;;;;;22.85;12.32;;;;;;;;;;5053942;28;20399;-82
2022/12/18 11:26:49;;;;;;;28.48;14.10;;;;;;;;;;5055017;28;20033;-82
2022/12/18 11:29:39;;;;;;;27.13;12.32;;;;;;;;;;5060085;28;20041;-83
2022/12/18 11:32:32;;;;;;;13.68;8.98;;;;;;;;;;5039251;28;20037;-82
2022/12/18 11:35:25;;;;;;;144.15;50.70;;;;;;;;;;5060744;28;20384;-82
2022/12/18 11:38:13;;;;;;;52.83;24.83;;;;;;;;;;5061575;28;20049;-85
2022/12/18 11:41:05;;;;;;;29.60;12.93;;;;;;;;;;5054752;28;20037;-84
2022/12/18 11:43:57;;;;;;;27.10;13.80;;;;;;;;;;5055730;28;20037;-84
2022/12/18 11:47:00;;;;;;;31.77;17.60;;;;;;;;;;5054225;28;20475;-84
2022/12/18 11:49:49;;;;;;;46.55;18.33;;;;;;;;;;5052907;28;20045;-81
2022/12/18 11:52:40;;;;;;;35.55;17.10;;;;;;;;;;5054472;28;20480;-84
2022/12/18 11:55:37;;;;;;;32.08;17.00;;;;;;;;;;5061145;28;20464;-84
2022/12/18 11:58:50;;;;;;;26.73;13.80;;;;;;;;;;5053827;28;20472;-83
2022/12/18 12:01:44;;;;;;;63.80;30.92;;;;;;;;;;5053698;28;20471;-83
2022/12/18 12:05:02;;;;;;;17.92;10.20;;;;;;;;;;5053692;28;20403;-83
2022/12/18 12:08:01;;;;;;;35.13;16.88;;;;;;;;;;5039414;28;20384;-83
2022/12/18 12:11:08;;;;;;;47.55;24.02;;;;;;;;;;5056018;28;20044;-83
2022/12/18 12:14:12;;;;;;;40.50;18.65;;;;;;;;;;5066227;28;20036;-83
2022/12/18 12:17:14;;;;;;;40.75;21.63;;;;;;;;;;5060264;28;20048;-83
2022/12/18 12:20:05;;;;;;;36.28;18.55;;;;;;;;;;5053944;28;20379;-82
2022/12/18 12:23:03;;;;;;;35.67;18.23;;;;;;;;;;5056686;28;20052;-82
2022/12/18 12:26:06;;;;;;;35.15;17.65;;;;;;;;;;5071392;28;20041;-82
2022/12/18 12:29:02;;;;;;;31.67;18.50;;;;;;;;;;5071527;28;20048;-84
2022/12/18 12:32:12;;;;;;;38.72;20.02;;;;;;;;;;5080247;28;20456;-83
2022/12/18 12:35:03;;;;;;;54.10;28.15;;;;;;;;;;5073735;28;20386;-83
2022/12/18 12:38:17;;;;;;;39.17;21.17;;;;;;;;;;5075792;28;20029;-83
2022/12/18 12:43:12;;;;;;;54.97;27.38;;;;;;;;;;5071599;28;20049;-85
2022/12/18 12:44:43;;;;;;;46.03;20.33;;;;;;;;;;5071683;28;20040;-84
2022/12/18 12:47:33;;;;;;;38.15;20.80;;;;;;;;;;5051797;28;20040;-84
2022/12/18 12:50:21;;;;;;;49.00;23.35;;;;;;;;;;5065666;28;20037;-84
2022/12/18 12:53:21;;;;;;;37.90;20.55;;;;;;;;;;5073082;28;20049;-84
2022/12/18 12:56:09;;;;;;;37.88;20.02;;;;;;;;;;5073925;28;20041;-84
2022/12/18 12:59:05;;;;;;;76.10;30.02;;;;;;;;;;5067104;28;20041;-85
2022/12/18 13:01:57;;;;;;;49.80;23.13;;;;;;;;;;5060163;28;20388;-84
2022/12/18 13:04:57;;;;;;;101.03;38.38;;;;;;;;;;5074717;28;20044;-82
2022/12/18 13:07:50;;;;;;;39.50;18.38;;;;;;;;;;5067680;28;20036;-82
2022/12/18 13:10:41;;;;;;;39.03;21.95;;;;;;;;;;5073485;28;20087;-83
2022/12/18 13:13:48;;;;;;;42.67;21.70;;;;;;;;;;5081347;28;20040;-82
2022/12/18 13:16:33;;;;;;;56.97;26.15;;;;;;;;;;5075687;28;20048;-83
2022/12/18 13:19:25;;;;;;;56.20;24.63;;;;;;;;;;5068158;28;20040;-84
2022/12/18 13:22:24;;;;;;;56.20;26.15;;;;;;;;;;5079095;28;20406;-84
2022/12/18 13:25:30;;;;;;;42.22;23.17;;;;;;;;;;5083298;28;20036;-83
2022/12/18 13:28:15;;;;;;;;;;;;;;;;;;5079997;28;20040;-84
2022/12/18 13:31:02;;;;;;;49.08;23.88;;;;;;;;;;5067836;28;19912;-84
2022/12/18 13:33:48;;;;;;;39.63;20.70;;;;;;;;;;5083545;28;20036;-84
2022/12/18 13:36:33;;;;;;;39.08;20.77;;;;;;;;;;5076589;28;20386;-85
2022/12/18 13:39:18;;;;;;;69.75;29.67;;;;;;;;;;5083046;28;20367;-85
2022/12/18 13:42:04;;;;;;;40.10;21.45;;;;;;;;;;5082539;28;20044;-85
2022/12/18 13:44:50;;;;;;;44.60;23.48;;;;;;;;;;5062665;28;20471;-84
2022/12/18 13:47:37;;;;;;;55.92;25.92;;;;;;;;;;5065316;28;20387;-84
2022/12/18 13:50:26;;;;;;;83.25;33.00;;;;;;;;;;5075181;28;20399;-86
2022/12/18 13:53:37;;;;;;;68.80;30.33;;;;;;;;;;5064556;28;20048;-85
2022/12/18 13:56:29;;;;;;;61.38;28.00;;;;;;;;;;5080637;28;20052;-85
2022/12/18 13:59:26;;;;;;;62.97;25.63;;;;;;;;;;5080166;28;20040;-84
2022/12/18 14:02:17;;;;;;;37.40;19.85;;;;;;;;;;5080934;28;20040;-85
2022/12/18 14:05:03;;;;;;;51.13;24.05;;;;;;;;;;5068665;28;20036;-85
2022/12/18 14:07:48;;;;;;;33.90;17.23;;;;;;;;;;5068847;28;20044;-84
2022/12/18 14:10:35;;;;;;;41.70;21.30;;;;;;;;;;5070706;28;20041;-84
2022/12/18 14:13:29;;;;;;;36.42;18.60;;;;;;;;;;5074721;28;20037;-85
2022/12/18 14:16:16;;;;;;;50.03;23.40;;;;;;;;;;5075866;28;20040;-85
2022/12/18 14:19:02;;;;;;;30.80;17.35;;;;;;;;;;5076120;28;20037;-86
2022/12/18 14:21:49;;;;;;;15.73;9.65;;;;;;;;;;5076335;28;20448;-85
2022/12/18 14:24:34;;;;;;;35.85;16.88;;;;;;;;;;5077029;28;20032;-85
2022/12/18 14:27:23;;;;;;;24.73;13.18;;;;;;;;;;5074461;28;20044;-85
2022/12/18 14:30:28;;;;;;;48.00;23.27;;;;;;;;;;5071542;28;20045;-85
2022/12/18 14:33:17;;;;;;;47.80;23.35;;;;;;;;;;5077271;28;20421;-84
2022/12/18 14:36:05;;;;;;;34.90;14.95;;;;;;;;;;5079317;28;20044;-85
2022/12/18 14:38:51;;;;;;;33.08;16.08;;;;;;;;;;5084783;28;20044;-84
2022/12/18 14:41:37;;;;;;;55.63;24.92;;;;;;;;;;5069241;28;20049;-84
2022/12/18 14:44:23;;;;;;;16.25;9.88;;;;;;;;;;5052229;28;20049;-85
2022/12/18 14:47:15;;;;;;;41.65;19.63;;;;;;;;;;5057189;28;20468;-84
2022/12/18 14:50:00;;;;;;;42.58;17.83;;;;;;;;;;5071692;28;20041;-84
2022/12/18 14:52:45;;;;;;;46.35;22.95;;;;;;;;;;5077421;28;20044;-84
2022/12/18 14:55:31;;;;;;;44.33;20.95;;;;;;;;;;5069251;28;20040;-84
2022/12/18 14:58:20;;;;;;;60.20;27.88;;;;;;;;;;5055148;28;20033;-84
2022/12/18 15:01:06;;;;;;;61.63;27.05;;;;;;;;;;5066253;28;20036;-84
2022/12/18 15:03:53;;;;;;;91.57;37.60;;;;;;;;;;5074686;28;20036;-85
2022/12/18 15:06:41;;;;;;;147.55;50.15;;;;;;;;;;5067521;28;20470;-85
2022/12/18 15:09:26;;;;;;;69.78;31.80;;;;;;;;;;5063394;28;20391;-85
2022/12/18 15:12:36;;;;;;;73.07;34.42;;;;;;;;;;5079443;28;20040;-83
2022/12/18 15:15:37;;;;;;;64.18;29.38;;;;;;;;;;5075282;28;20044;-84
2022/12/18 15:18:41;;;;;;;64.72;29.92;;;;;;;;;;5074515;28;20044;-84
2022/12/18 15:21:30;;;;;;;91.68;37.20;;;;;;;;;;5074268;28;20037;-84
2022/12/18 15:24:27;;;;;;;68.57;30.65;;;;;;;;;;5061176;28;20044;-86
2022/12/18 15:27:27;;;;;;;52.10;19.27;;;;;;;;;;5054510;28;20037;-83
2022/12/18 15:30:16;;;;;;;76.40;33.25;;;;;;;;;;5062244;28;20055;-83
2022/12/18 15:33:38;;;;;;;80.35;36.83;;;;;;;;;;5086167;28;20036;-84
2022/12/18 15:36:24;;;;;;;41.95;19.90;;;;;;;;;;5018273;28;20038;-84
2022/12/18 15:39:13;;;;;;;49.58;23.02;;;;;;;;;;5074520;28;20136;-83
2022/12/18 15:45:04;;;;;;;43.28;22.35;;;;;;;;;;5060016;28;20036;-85
2022/12/18 15:47:49;;;;;;;43.92;23.08;;;;;;;;;;5070057;28;20048;-85
2022/12/18 15:50:35;;;;;;;46.92;22.38;;;;;;;;;;5068450;28;20048;-84
2022/12/18 15:53:20;;;;;;;44.88;21.70;;;;;;;;;;5071833;28;20032;-84
2022/12/18 15:59:17;;;;;;;43.53;20.45;;;;;;;;;;5070032;28;20036;-82
2022/12/18 16:02:02;;;;;;;41.45;20.08;;;;;;;;;;5071404;28;20475;-82
2022/12/18 16:04:48;;;;;;;41.75;21.58;;;;;;;;;;5063024;28;20390;-85
2022/12/18 16:07:33;;;;;;;40.67;21.05;;;;;;;;;;5063433;28;20041;-85
2022/12/18 16:10:19;;;;;;;56.63;27.10;;;;;;;;;;5069488;28;20033;-82
2022/12/18 16:13:05;;;;;;;68.05;33.53;;;;;;;;;;5065110;28;20375;-82
2022/12/18 16:15:51;;;;;;;49.90;25.00;;;;;;;;;;5068418;28;20033;-83
2022/12/18 16:18:36;;;;;;;46.40;23.70;;;;;;;;;;5063590;28;20033;-83
2022/12/18 16:21:22;;;;;;;55.42;26.40;;;;;;;;;;5080401;28;20048;-83
2022/12/18 16:24:22;;;;;;;57.25;27.73;;;;;;;;;;5073552;28;20044;-83
2022/12/18 16:27:07;;;;;;;46.83;24.48;;;;;;;;;;5073002;28;20066;-84
2022/12/18 16:29:53;;;;;;;61.28;29.58;;;;;;;;;;5074220;28;20044;-84
2022/12/18 16:32:38;;;;;;;97.13;43.75;;;;;;;;;;5073344;28;20379;-84
2022/12/18 16:35:25;;;;;;;81.20;38.03;;;;;;;;;;5058959;28;20033;-85
2022/12/18 16:38:11;;;;;;;76.75;38.78;;;;;;;;;;5076752;28;20041;-84
2022/12/18 16:44:00;;;;;;;93.47;41.45;;;;;;;;;;5066142;28;20475;-81
2022/12/18 16:46:46;;;;;;;82.93;38.47;;;;;;;;;;5076843;28;20036;-84